createdAt,value
2018-03-17T00:00:02.183Z,57.84
2018-03-17T00:01:02.193Z,58.12
2018-03-17T00:02:02.208Z,58.03
2018-03-17T00:03:02.222Z,58.12
2018-03-17T00:04:02.232Z,58.03
2018-03-17T00:05:02.245Z,58.69
2018-03-17T00:06:02.262Z,58.78
2018-03-17T00:07:02.272Z,59.44
2018-03-17T00:08:02.287Z,59.16
2018-03-17T00:09:02.304Z,59.16
2018-03-17T00:10:02.311Z,59.06
2018-03-17T00:11:02.328Z,59.16
2018-03-17T00:12:02.342Z,58.97
2018-03-17T00:13:02.351Z,58.69
2018-03-17T00:14:02.367Z,58.50
2018-03-17T00:15:02.382Z,58.59
2018-03-17T00:16:02.392Z,58.50
2018-03-17T00:17:02.406Z,58.31
2018-03-17T00:18:02.417Z,59.06
2018-03-17T00:19:02.436Z,59.06
2018-03-17T00:20:02.479Z,58.59
2018-03-17T00:21:02.462Z,58.22
2018-03-17T00:22:02.473Z,57.74
2018-03-17T00:23:02.488Z,57.37
2018-03-17T00:24:02.494Z,57.65
2018-03-17T00:25:02.511Z,57.65
2018-03-17T00:26:02.523Z,57.46
2018-03-17T00:27:02.541Z,58.12
2018-03-17T00:28:02.550Z,58.03
2018-03-17T00:29:02.568Z,58.40
2018-03-17T00:30:02.576Z,57.84
2018-03-17T00:31:02.595Z,58.03
2018-03-17T00:32:02.604Z,57.46
2018-03-17T00:33:02.620Z,57.93
2018-03-17T00:34:02.625Z,58.22
2018-03-17T00:35:02.643Z,57.74
2018-03-17T00:36:02.666Z,57.55
2018-03-17T00:37:02.668Z,57.55
2018-03-17T00:38:02.694Z,57.27
2018-03-17T00:39:02.697Z,57.18
2018-03-17T00:40:02.706Z,56.99
2018-03-17T00:41:02.719Z,56.70
2018-03-17T00:42:02.739Z,57.20
2018-03-17T00:43:02.750Z,57.08
2018-03-17T00:44:02.757Z,56.99
2018-03-17T00:45:02.775Z,57.08
2018-03-17T00:46:02.794Z,57.18
2018-03-17T00:47:02.799Z,57.20
2018-03-17T00:48:02.814Z,57.01
2018-03-17T00:49:02.830Z,56.70
2018-03-17T00:50:02.843Z,57.74
2018-03-17T00:51:02.858Z,58.87
2018-03-17T00:52:02.875Z,59.54
2018-03-17T00:53:02.879Z,59.82
2018-03-17T00:54:02.898Z,59.44
2018-03-17T00:55:02.911Z,59.25
2018-03-17T00:56:02.919Z,59.16
2018-03-17T00:57:02.934Z,59.25
2018-03-17T00:58:02.949Z,58.91
2018-03-17T00:59:02.959Z,59.47
2018-03-17T01:00:02.974Z,59.19
2018-03-17T01:01:02.989Z,59.63
2018-03-17T01:02:03.003Z,59.73
2018-03-17T01:03:03.023Z,60.11
2018-03-17T01:04:03.027Z,60.77
2018-03-17T01:05:03.043Z,61.52
2018-03-17T01:06:03.057Z,61.15
2018-03-17T01:07:03.068Z,61.33
2018-03-17T01:08:03.079Z,61.05
2018-03-17T01:09:03.104Z,61.33
2018-03-17T01:10:03.114Z,61.24
2018-03-17T01:11:03.123Z,61.24
2018-03-17T01:12:03.141Z,61.24
2018-03-17T01:13:03.148Z,60.58
2018-03-17T01:14:03.163Z,60.67
2018-03-17T01:15:03.178Z,60.86
2018-03-17T01:16:03.187Z,61.24
2018-03-17T01:17:03.203Z,61.24
2018-03-17T01:18:03.217Z,61.24
2018-03-17T01:19:03.228Z,60.96
2018-03-17T01:20:03.243Z,60.58
2018-03-17T01:21:03.257Z,60.96
2018-03-17T01:22:03.268Z,60.11
2018-03-17T01:23:03.283Z,60.01
2018-03-17T01:24:03.298Z,60.11
2018-03-17T01:25:03.315Z,59.82
2018-03-17T01:26:03.327Z,60.20
2018-03-17T01:27:03.342Z,60.11
2018-03-17T01:28:03.346Z,59.92
2018-03-17T01:29:03.364Z,60.20
2018-03-17T01:30:03.377Z,60.86
2018-03-17T01:31:03.396Z,61.05
2018-03-17T01:32:03.411Z,61.24
2018-03-17T01:33:03.418Z,61.15
2018-03-17T01:34:03.435Z,61.24
2018-03-17T01:35:03.445Z,61.33
2018-03-17T01:36:03.457Z,61.33
2018-03-17T01:37:03.472Z,61.24
2018-03-17T01:38:03.489Z,61.90
2018-03-17T01:39:03.496Z,61.52
2018-03-17T01:40:03.512Z,61.43
2018-03-17T01:41:03.526Z,61.15
2018-03-17T01:42:03.535Z,61.80
2018-03-17T01:43:03.554Z,62.37
2018-03-17T01:44:03.566Z,63.13
2018-03-17T01:45:03.576Z,63.79
2018-03-17T01:46:03.590Z,63.23
2018-03-17T01:47:03.606Z,62.94
2018-03-17T01:48:03.615Z,62.47
2018-03-17T01:49:03.633Z,62.18
2018-03-17T01:50:03.649Z,62.37
2018-03-17T01:51:03.656Z,62.85
2018-03-17T01:52:03.675Z,63.04
2018-03-17T01:53:03.689Z,63.23
2018-03-17T01:54:03.700Z,62.85
2018-03-17T01:55:03.710Z,63.04
2018-03-17T01:56:03.730Z,62.28
2018-03-17T01:57:03.735Z,62.94
2018-03-17T01:58:03.749Z,62.94
2018-03-17T01:59:03.765Z,63.13
2018-03-17T02:00:03.780Z,62.47
2018-03-17T02:01:03.792Z,62.28
2018-03-17T02:02:03.810Z,62.09
2018-03-17T02:03:03.815Z,62.09
2018-03-17T02:04:03.830Z,62.28
2018-03-17T02:05:03.843Z,61.80
2018-03-17T02:06:03.856Z,61.90
2018-03-17T02:07:03.870Z,61.71
2018-03-17T02:08:03.880Z,61.24
2018-03-17T02:09:03.894Z,61.33
2018-03-17T02:10:03.918Z,61.24
2018-03-17T02:11:03.918Z,61.15
2018-03-17T02:12:03.939Z,60.86
2018-03-17T02:13:03.954Z,60.67
2018-03-17T02:14:03.969Z,60.96
2018-03-17T02:15:03.975Z,60.67
2018-03-17T02:16:03.992Z,60.77
2018-03-17T02:17:04.000Z,60.49
2018-03-17T02:18:04.020Z,60.77
2018-03-17T02:19:04.027Z,60.39
2018-03-17T02:20:04.041Z,60.49
2018-03-17T02:21:04.062Z,60.30
2018-03-17T02:22:04.069Z,60.86
2018-03-17T02:23:04.079Z,61.52
2018-03-17T02:24:04.093Z,61.80
2018-03-17T02:25:04.104Z,61.80
2018-03-17T02:26:04.118Z,61.71
2018-03-17T02:27:04.136Z,61.52
2018-03-17T02:28:04.151Z,61.43
2018-03-17T02:29:04.159Z,61.24
2018-03-17T02:30:04.177Z,61.71
2018-03-17T02:31:04.186Z,62.18
2018-03-17T02:32:04.198Z,63.04
2018-03-17T02:33:04.211Z,62.09
2018-03-17T02:34:04.228Z,61.43
2018-03-17T02:35:04.240Z,61.24
2018-03-17T02:36:04.248Z,60.86
2018-03-17T02:37:04.265Z,60.49
2018-03-17T02:38:04.275Z,61.05
2018-03-17T02:39:04.289Z,60.49
2018-03-17T02:40:04.309Z,61.05
2018-03-17T02:41:04.319Z,60.77
2018-03-17T02:42:04.332Z,61.33
2018-03-17T02:43:04.344Z,60.96
2018-03-17T02:44:04.352Z,60.86
2018-03-17T02:45:04.369Z,60.86
2018-03-17T02:46:04.380Z,61.05
2018-03-17T02:47:04.396Z,60.86
2018-03-17T02:48:04.407Z,60.86
2018-03-17T02:49:04.424Z,60.58
2018-03-17T02:50:04.435Z,60.86
2018-03-17T02:51:04.444Z,60.86
2018-03-17T02:52:04.460Z,60.96
2018-03-17T02:53:04.473Z,60.96
2018-03-17T02:54:04.491Z,61.05
2018-03-17T02:55:04.499Z,60.11
2018-03-17T02:56:04.517Z,60.11
2018-03-17T02:57:04.524Z,60.01
2018-03-17T02:58:04.537Z,60.01
2018-03-17T02:59:04.549Z,58.78
2018-03-17T03:00:04.571Z,58.31
2018-03-17T03:01:04.572Z,57.84
2018-03-17T03:02:04.590Z,57.18
2018-03-17T03:03:04.607Z,56.99
2018-03-17T03:04:04.617Z,57.08
2018-03-17T03:05:04.629Z,56.99
2018-03-17T03:06:04.640Z,56.80
2018-03-17T03:07:04.658Z,56.89
2018-03-17T03:08:04.668Z,57.46
2018-03-17T03:09:04.678Z,57.46
2018-03-17T03:10:04.693Z,57.65
2018-03-17T03:11:04.705Z,57.93
2018-03-17T03:12:04.713Z,58.69
2018-03-17T03:13:04.727Z,58.87
2018-03-17T03:14:04.745Z,59.25
2018-03-17T03:15:04.757Z,59.63
2018-03-17T03:16:04.770Z,59.82
2018-03-17T03:17:04.781Z,60.01
2018-03-17T03:18:04.790Z,60.39
2018-03-17T03:19:04.806Z,60.20
2018-03-17T03:20:04.816Z,60.55
2018-03-17T03:21:04.831Z,60.93
2018-03-17T03:22:04.840Z,60.83
2018-03-17T03:23:04.855Z,60.93
2018-03-17T03:24:04.870Z,61.11
2018-03-17T03:25:04.880Z,60.74
2018-03-17T03:26:04.901Z,61.11
2018-03-17T03:27:04.919Z,60.93
2018-03-17T03:28:04.921Z,60.77
2018-03-17T03:29:04.930Z,60.64
2018-03-17T03:30:04.951Z,60.64
2018-03-17T03:31:04.964Z,60.64
2018-03-17T03:32:04.975Z,61.21
2018-03-17T03:33:04.981Z,61.58
2018-03-17T03:34:04.994Z,61.49
2018-03-17T03:35:05.010Z,60.83
2018-03-17T03:36:05.020Z,60.74
2018-03-17T03:37:05.029Z,60.74
2018-03-17T03:38:05.045Z,61.02
2018-03-17T03:39:05.061Z,60.46
2018-03-17T03:40:05.073Z,60.17
2018-03-17T03:41:05.088Z,60.17
2018-03-17T03:42:05.094Z,59.98
2018-03-17T03:43:05.110Z,59.70
2018-03-17T03:44:05.119Z,59.13
2018-03-17T03:45:05.134Z,58.47
2018-03-17T03:46:05.149Z,58.18
2018-03-17T03:47:05.163Z,57.34
2018-03-17T03:48:05.177Z,57.90
2018-03-17T03:49:05.187Z,57.53
2018-03-17T03:50:05.202Z,56.67
2018-03-17T03:51:05.222Z,56.30
2018-03-17T03:52:05.223Z,56.11
2018-03-17T03:53:05.238Z,55.35
2018-03-17T03:54:05.252Z,54.97
2018-03-17T03:55:05.258Z,54.97
2018-03-17T03:56:05.272Z,55.35
2018-03-17T03:57:05.288Z,55.07
2018-03-17T03:58:05.302Z,54.79
2018-03-17T03:59:05.313Z,54.22
2018-03-17T04:00:05.320Z,53.65
2018-03-17T04:01:05.332Z,53.18
2018-03-17T04:02:05.348Z,53.27
2018-03-17T04:03:05.354Z,52.89
2018-03-17T04:04:05.368Z,51.86
2018-03-17T04:05:05.387Z,51.57
2018-03-17T04:06:05.392Z,51.67
2018-03-17T04:07:05.408Z,51.67
2018-03-17T04:08:05.418Z,51.86
2018-03-17T04:09:05.432Z,52.23
2018-03-17T04:10:05.448Z,51.95
2018-03-17T04:11:05.460Z,51.86
2018-03-17T04:12:05.467Z,52.04
2018-03-17T04:13:05.479Z,51.76
2018-03-17T04:14:05.495Z,52.23
2018-03-17T04:15:05.507Z,52.33
2018-03-17T04:16:05.517Z,52.33
2018-03-17T04:17:05.541Z,52.04
2018-03-17T04:18:05.543Z,52.23
2018-03-17T04:19:05.560Z,51.57
2018-03-17T04:20:05.567Z,51.76
2018-03-17T04:21:05.581Z,51.95
2018-03-17T04:22:05.599Z,51.76
2018-03-17T04:23:05.611Z,51.67
2018-03-17T04:24:05.616Z,52.04
2018-03-17T04:25:05.633Z,51.86
2018-03-17T04:26:05.642Z,52.04
2018-03-17T04:27:05.661Z,52.23
2018-03-17T04:28:05.664Z,52.14
2018-03-17T04:29:05.677Z,52.70
2018-03-17T04:30:05.696Z,52.70
2018-03-17T04:31:05.701Z,53.08
2018-03-17T04:32:05.716Z,52.80
2018-03-17T04:33:05.731Z,52.99
2018-03-17T04:34:05.745Z,52.80
2018-03-17T04:35:05.754Z,52.14
2018-03-17T04:36:05.763Z,52.14
2018-03-17T04:37:05.776Z,52.23
2018-03-17T04:38:05.791Z,52.33
2018-03-17T04:39:05.806Z,52.04
2018-03-17T04:40:05.820Z,51.57
2018-03-17T04:41:05.825Z,51.86
2018-03-17T04:42:05.839Z,52.23
2018-03-17T04:43:05.855Z,52.14
2018-03-17T04:44:05.862Z,52.14
2018-03-17T04:45:05.876Z,51.95
2018-03-17T04:46:05.885Z,52.04
2018-03-17T04:47:05.903Z,52.04
2018-03-17T04:48:05.921Z,52.33
2018-03-17T04:49:05.925Z,52.23
2018-03-17T04:50:05.934Z,51.67
2018-03-17T04:51:05.950Z,51.67
2018-03-17T04:52:05.963Z,51.57
2018-03-17T04:53:05.975Z,51.48
2018-03-17T04:54:05.989Z,51.86
2018-03-17T04:55:06.007Z,51.48
2018-03-17T04:56:06.012Z,52.14
2018-03-17T04:57:06.019Z,52.23
2018-03-17T04:58:06.034Z,52.80
2018-03-17T04:59:06.048Z,52.14
2018-03-17T05:00:06.063Z,52.23
2018-03-17T05:01:06.078Z,52.23
2018-03-17T05:02:06.087Z,52.14
2018-03-17T05:03:06.095Z,51.95
2018-03-17T05:04:06.112Z,52.04
2018-03-17T05:05:06.124Z,52.42
2018-03-17T05:06:06.134Z,51.95
2018-03-17T05:07:06.143Z,51.86
2018-03-17T05:08:06.159Z,51.95
2018-03-17T05:09:06.169Z,52.04
2018-03-17T05:10:06.184Z,52.04
2018-03-17T05:11:06.193Z,52.14
2018-03-17T05:12:06.208Z,51.76
2018-03-17T05:13:06.217Z,51.76
2018-03-17T05:14:06.230Z,51.57
2018-03-17T05:15:06.243Z,51.57
2018-03-17T05:16:06.254Z,51.76
2018-03-17T05:17:06.269Z,51.48
2018-03-17T05:18:06.281Z,51.57
2018-03-17T05:19:06.293Z,51.57
2018-03-17T05:20:06.304Z,51.57
2018-03-17T05:21:06.317Z,51.67
2018-03-17T05:22:06.332Z,51.48
2018-03-17T05:23:06.343Z,51.20
2018-03-17T05:24:06.363Z,51.67
2018-03-17T05:25:06.371Z,51.67
2018-03-17T05:26:06.383Z,51.20
2018-03-17T05:27:06.402Z,51.20
2018-03-17T05:28:06.400Z,51.20
2018-03-17T05:29:06.416Z,51.57
2018-03-17T05:30:06.424Z,51.29
2018-03-17T05:31:06.438Z,50.91
2018-03-17T05:32:06.452Z,51.10
2018-03-17T05:33:06.465Z,51.10
2018-03-17T05:34:06.476Z,51.10
2018-03-17T05:35:06.487Z,50.91
2018-03-17T05:36:06.501Z,51.01
2018-03-17T05:37:06.508Z,51.20
2018-03-17T05:38:06.520Z,50.72
2018-03-17T05:39:06.531Z,50.63
2018-03-17T05:40:06.552Z,50.72
2018-03-17T05:41:06.563Z,50.91
2018-03-17T05:42:06.574Z,50.91
2018-03-17T05:43:06.584Z,51.01
2018-03-17T05:44:06.599Z,51.39
2018-03-17T05:45:06.613Z,51.29
2018-03-17T05:46:06.617Z,51.48
2018-03-17T05:47:06.635Z,51.57
2018-03-17T05:48:06.640Z,51.48
2018-03-17T05:49:06.652Z,51.01
2018-03-17T05:50:06.667Z,50.72
2018-03-17T05:51:06.676Z,50.63
2018-03-17T05:52:06.685Z,50.72
2018-03-17T05:53:06.703Z,50.72
2018-03-17T05:54:06.711Z,50.82
2018-03-17T05:55:06.733Z,50.72
2018-03-17T05:56:06.749Z,50.82
2018-03-17T05:57:06.755Z,49.97
2018-03-17T05:58:06.764Z,50.16
2018-03-17T05:59:06.771Z,49.97
2018-03-17T06:00:06.785Z,50.63
2018-03-17T06:01:06.796Z,50.63
2018-03-17T06:02:06.815Z,50.91
2018-03-17T06:03:06.821Z,50.16
2018-03-17T06:04:06.836Z,50.06
2018-03-17T06:05:06.847Z,49.78
2018-03-17T06:06:06.867Z,49.49
2018-03-17T06:07:06.874Z,49.68
2018-03-17T06:08:06.881Z,49.78
2018-03-17T06:09:06.905Z,49.68
2018-03-17T06:10:06.905Z,49.78
2018-03-17T06:11:06.926Z,49.68
2018-03-17T06:12:06.929Z,49.68
2018-03-17T06:13:06.948Z,49.49
2018-03-17T06:14:07.017Z,49.78
2018-03-17T06:15:06.974Z,49.49
2018-03-17T06:16:06.979Z,49.78
2018-03-17T06:17:06.993Z,49.21
2018-03-17T06:18:07.008Z,49.21
2018-03-17T06:19:07.014Z,49.30
2018-03-17T06:20:07.028Z,48.46
2018-03-17T06:21:07.040Z,48.27
2018-03-17T06:22:07.052Z,48.27
2018-03-17T06:23:07.065Z,48.36
2018-03-17T06:24:07.077Z,47.99
2018-03-17T06:25:07.090Z,48.18
2018-03-17T06:26:07.098Z,48.36
2018-03-17T06:27:07.113Z,47.99
2018-03-17T06:28:07.125Z,48.18
2018-03-17T06:29:07.132Z,48.36
2018-03-17T06:30:07.148Z,48.74
2018-03-17T06:31:07.163Z,48.36
2018-03-17T06:32:07.169Z,47.80
2018-03-17T06:33:07.185Z,47.99
2018-03-17T06:34:07.194Z,47.70
2018-03-17T06:35:07.208Z,47.04
2018-03-17T06:36:07.220Z,47.61
2018-03-17T06:37:07.233Z,47.13
2018-03-17T06:38:07.249Z,46.85
2018-03-17T06:39:07.262Z,46.75
2018-03-17T06:40:07.267Z,46.47
2018-03-17T06:41:07.278Z,46.09
2018-03-17T06:42:07.292Z,46.09
2018-03-17T06:43:07.310Z,46.19
2018-03-17T06:44:07.319Z,46.19
2018-03-17T06:45:07.335Z,46.00
2018-03-17T06:46:07.348Z,45.72
2018-03-17T06:47:07.361Z,45.72
2018-03-17T06:48:07.371Z,46.09
2018-03-17T06:49:07.381Z,46.00
2018-03-17T06:50:07.394Z,45.90
2018-03-17T06:51:07.407Z,45.72
2018-03-17T06:52:07.416Z,45.72
2018-03-17T06:53:07.427Z,44.87
2018-03-17T06:54:07.440Z,45.15
2018-03-17T06:55:07.452Z,45.72
2018-03-17T06:56:07.466Z,45.72
2018-03-17T06:57:07.477Z,45.62
2018-03-17T06:58:07.489Z,45.72
2018-03-17T06:59:07.499Z,45.43
2018-03-17T07:00:07.538Z,45.72
2018-03-17T07:01:07.523Z,45.06
2018-03-17T07:02:07.538Z,44.87
2018-03-17T07:03:07.545Z,44.68
2018-03-17T07:04:07.559Z,44.77
2018-03-17T07:05:07.575Z,44.77
2018-03-17T07:06:07.585Z,44.30
2018-03-17T07:07:07.596Z,44.39
2018-03-17T07:08:07.610Z,44.39
2018-03-17T07:09:07.616Z,44.02
2018-03-17T07:10:07.630Z,43.92
2018-03-17T07:11:07.650Z,44.11
2018-03-17T07:12:07.658Z,44.39
2018-03-17T07:13:07.670Z,43.54
2018-03-17T07:14:07.688Z,43.73
2018-03-17T07:15:07.693Z,43.92
2018-03-17T07:16:07.703Z,43.83
2018-03-17T07:17:07.720Z,43.73
2018-03-17T07:18:07.736Z,43.73
2018-03-17T07:19:07.783Z,43.64
2018-03-17T07:20:07.750Z,43.64
2018-03-17T07:21:07.760Z,43.54
2018-03-17T07:22:07.781Z,43.45
2018-03-17T07:23:07.791Z,43.45
2018-03-17T07:24:07.806Z,43.92
2018-03-17T07:25:07.815Z,42.97
2018-03-17T07:26:07.833Z,42.88
2018-03-17T07:27:07.850Z,42.69
2018-03-17T07:28:07.850Z,43.07
2018-03-17T07:29:07.867Z,42.60
2018-03-17T07:30:07.872Z,42.50
2018-03-17T07:31:07.887Z,41.94
2018-03-17T07:32:07.914Z,41.85
2018-03-17T07:33:07.908Z,41.94
2018-03-17T07:34:07.925Z,41.75
2018-03-17T07:35:07.934Z,41.85
2018-03-17T07:36:07.945Z,41.85
2018-03-17T07:37:07.960Z,42.60
2018-03-17T07:38:07.970Z,42.41
2018-03-17T07:39:07.985Z,42.52
2018-03-17T07:40:07.994Z,42.52
2018-03-17T07:41:08.010Z,42.43
2018-03-17T07:42:08.021Z,42.13
2018-03-17T07:43:08.034Z,41.67
2018-03-17T07:44:08.053Z,42.03
2018-03-17T07:45:08.061Z,42.22
2018-03-17T07:46:08.065Z,41.75
2018-03-17T07:47:08.083Z,42.32
2018-03-17T07:48:08.106Z,42.41
2018-03-17T07:49:08.105Z,42.05
2018-03-17T07:50:08.115Z,42.15
2018-03-17T07:51:08.129Z,42.05
2018-03-17T07:52:08.179Z,41.77
2018-03-17T07:53:08.158Z,41.58
2018-03-17T07:54:08.168Z,41.75
2018-03-17T07:55:08.179Z,41.67
2018-03-17T07:56:08.192Z,41.49
2018-03-17T07:57:08.202Z,41.39
2018-03-17T07:58:08.215Z,41.58
2018-03-17T07:59:08.233Z,41.86
2018-03-17T08:00:08.238Z,41.77
2018-03-17T08:01:08.256Z,41.67
2018-03-17T08:02:08.271Z,41.11
2018-03-17T08:03:08.281Z,41.20
2018-03-17T08:04:08.291Z,41.20
2018-03-17T08:05:08.307Z,40.83
2018-03-17T08:06:08.316Z,41.02
2018-03-17T08:07:08.327Z,41.02
2018-03-17T08:08:08.340Z,41.20
2018-03-17T08:09:08.358Z,41.11
2018-03-17T08:10:08.374Z,41.30
2018-03-17T08:11:08.381Z,41.11
2018-03-17T08:12:08.402Z,41.20
2018-03-17T08:13:08.401Z,41.11
2018-03-17T08:14:08.414Z,41.11
2018-03-17T08:15:08.432Z,41.11
2018-03-17T08:16:08.437Z,41.11
2018-03-17T08:17:08.454Z,41.20
2018-03-17T08:18:08.464Z,40.83
2018-03-17T08:19:08.481Z,41.11
2018-03-17T08:20:08.489Z,40.54
2018-03-17T08:21:08.503Z,41.30
2018-03-17T08:22:08.513Z,40.92
2018-03-17T08:23:08.530Z,41.20
2018-03-17T08:24:08.548Z,41.02
2018-03-17T08:25:08.558Z,41.49
2018-03-17T08:26:08.566Z,41.49
2018-03-17T08:27:08.582Z,41.11
2018-03-17T08:28:08.587Z,41.02
2018-03-17T08:29:08.604Z,41.20
2018-03-17T08:30:08.617Z,40.73
2018-03-17T08:31:08.627Z,41.02
2018-03-17T08:32:08.642Z,41.20
2018-03-17T08:33:08.652Z,40.83
2018-03-17T08:34:08.774Z,40.73
2018-03-17T08:35:08.676Z,40.73
2018-03-17T08:36:08.695Z,40.35
2018-03-17T08:37:08.702Z,40.07
2018-03-17T08:38:08.722Z,39.88
2018-03-17T08:39:08.734Z,40.16
2018-03-17T08:40:08.741Z,39.97
2018-03-17T08:41:08.754Z,40.16
2018-03-17T08:42:08.771Z,40.16
2018-03-17T08:43:08.784Z,39.97
2018-03-17T08:44:08.790Z,40.16
2018-03-17T08:45:08.809Z,39.69
2018-03-17T08:46:08.818Z,39.50
2018-03-17T08:47:08.831Z,39.88
2018-03-17T08:48:08.845Z,39.59
2018-03-17T08:49:08.855Z,39.50
2018-03-17T08:50:08.879Z,39.69
2018-03-17T08:51:08.885Z,39.71
2018-03-17T08:52:08.895Z,39.90
2018-03-17T08:53:08.920Z,39.50
2018-03-17T08:54:08.924Z,39.12
2018-03-17T08:55:08.936Z,39.59
2018-03-17T08:56:08.947Z,39.78
2018-03-17T08:57:08.955Z,39.33
2018-03-17T08:58:08.983Z,39.43
2018-03-17T08:59:08.983Z,38.95
2018-03-17T09:00:09.000Z,38.84
2018-03-17T09:01:09.011Z,38.65
2018-03-17T09:02:09.024Z,38.37
2018-03-17T09:03:09.041Z,38.37
2018-03-17T09:04:09.045Z,37.80
2018-03-17T09:05:09.064Z,37.90
2018-03-17T09:06:09.078Z,38.37
2018-03-17T09:07:09.092Z,38.39
2018-03-17T09:08:09.101Z,37.80
2018-03-17T09:09:09.117Z,38.09
2018-03-17T09:10:09.127Z,38.09
2018-03-17T09:11:09.151Z,37.73
2018-03-17T09:12:09.159Z,37.42
2018-03-17T09:13:09.165Z,37.33
2018-03-17T09:14:09.181Z,37.42
2018-03-17T09:15:09.189Z,37.16
2018-03-17T09:16:09.210Z,37.16
2018-03-17T09:17:09.219Z,36.87
2018-03-17T09:18:09.234Z,36.12
2018-03-17T09:19:09.244Z,35.93
2018-03-17T09:20:09.261Z,35.55
2018-03-17T09:21:09.274Z,35.36
2018-03-17T09:22:09.280Z,35.17
2018-03-17T09:23:09.302Z,35.17
2018-03-17T09:24:09.309Z,35.17
2018-03-17T09:25:09.320Z,35.08
2018-03-17T09:26:09.330Z,34.61
2018-03-17T09:27:09.344Z,34.61
2018-03-17T09:28:09.360Z,33.94
2018-03-17T09:29:09.371Z,33.56
2018-03-17T09:30:09.384Z,33.75
2018-03-17T09:31:09.412Z,33.37
2018-03-17T09:32:09.413Z,33.37
2018-03-17T09:33:09.418Z,33.37
2018-03-17T09:34:09.434Z,33.66
2018-03-17T09:35:09.453Z,33.37
2018-03-17T09:36:09.460Z,33.37
2018-03-17T09:37:09.482Z,33.56
2018-03-17T09:38:09.514Z,33.56
2018-03-17T09:39:09.498Z,33.66
2018-03-17T09:40:09.514Z,33.75
2018-03-17T09:41:09.533Z,33.56
2018-03-17T09:42:09.539Z,33.75
2018-03-17T09:43:09.553Z,33.75
2018-03-17T09:44:09.563Z,33.66
2018-03-17T09:45:09.588Z,32.81
2018-03-17T09:46:09.595Z,32.81
2018-03-17T09:47:09.608Z,32.81
2018-03-17T09:48:09.623Z,32.62
2018-03-17T09:49:09.630Z,32.62
2018-03-17T09:50:09.646Z,32.90
2018-03-17T09:51:09.657Z,32.90
2018-03-17T09:52:09.715Z,33.66
2018-03-17T09:53:09.690Z,33.56
2018-03-17T09:54:09.697Z,33.75
2018-03-17T09:55:09.716Z,33.77
2018-03-17T09:56:09.723Z,34.04
2018-03-17T09:57:09.741Z,34.25
2018-03-17T09:58:09.759Z,34.63
2018-03-17T09:59:09.790Z,34.70
2018-03-17T10:00:09.776Z,34.72
2018-03-17T10:01:09.802Z,34.81
2018-03-17T10:02:09.804Z,33.49
2018-03-17T10:03:09.823Z,33.68
2018-03-17T10:04:09.833Z,33.68
2018-03-17T10:05:09.851Z,32.92
2018-03-17T10:06:09.861Z,32.82
2018-03-17T10:07:09.876Z,32.54
2018-03-17T10:08:09.885Z,32.64
2018-03-17T10:09:09.899Z,32.17
2018-03-17T10:10:09.919Z,31.88
2018-03-17T10:11:09.927Z,31.60
2018-03-17T10:12:09.945Z,31.41
2018-03-17T10:13:09.954Z,31.60
2018-03-17T10:14:09.970Z,31.69
2018-03-17T10:15:09.987Z,31.79
2018-03-17T10:16:10.004Z,31.98
2018-03-17T10:17:10.012Z,31.98
2018-03-17T10:18:10.029Z,31.69
2018-03-17T10:19:10.039Z,31.41
2018-03-17T10:20:10.051Z,30.46
2018-03-17T10:21:10.068Z,30.27
2018-03-17T10:22:10.086Z,30.08
2018-03-17T10:23:10.100Z,30.27
2018-03-17T10:24:10.109Z,30.93
2018-03-17T10:25:10.121Z,31.31
2018-03-17T10:26:10.135Z,31.69
2018-03-17T10:27:10.157Z,31.98
2018-03-17T10:28:10.160Z,31.98
2018-03-17T10:29:10.181Z,32.17
2018-03-17T10:30:10.200Z,32.07
2018-03-17T10:31:10.211Z,32.35
2018-03-17T10:32:10.216Z,31.98
2018-03-17T10:33:10.230Z,31.98
2018-03-17T10:34:10.282Z,31.80
2018-03-17T10:35:10.262Z,30.85
2018-03-17T10:36:10.284Z,29.81
2018-03-17T10:37:10.288Z,28.67
2018-03-17T10:38:10.317Z,28.77
2018-03-17T10:39:10.317Z,28.77
2018-03-17T10:40:10.329Z,28.77
2018-03-17T10:41:10.350Z,28.67
2018-03-17T10:42:10.361Z,28.11
2018-03-17T10:43:10.383Z,28.02
2018-03-17T10:44:10.394Z,27.35
2018-03-17T10:45:10.405Z,26.88
2018-03-17T10:46:10.422Z,26.88
2018-03-17T10:47:10.440Z,27.26
2018-03-17T10:48:10.444Z,27.64
2018-03-17T10:49:10.462Z,27.73
2018-03-17T10:50:10.475Z,28.20
2018-03-17T10:51:10.495Z,28.39
2018-03-17T10:52:10.509Z,28.11
2018-03-17T10:53:10.526Z,26.88
2018-03-17T10:54:10.537Z,26.78
2018-03-17T10:55:10.553Z,27.08
2018-03-17T10:56:10.560Z,26.97
2018-03-17T10:57:10.578Z,27.75
2018-03-17T10:58:10.590Z,27.65
2018-03-17T10:59:10.603Z,27.65
2018-03-17T11:00:10.647Z,27.94
2018-03-17T11:01:10.634Z,28.03
2018-03-17T11:02:10.649Z,28.03
2018-03-17T11:03:10.668Z,28.03
2018-03-17T11:04:10.678Z,27.27
2018-03-17T11:05:10.695Z,26.62
2018-03-17T11:06:10.717Z,26.24
2018-03-17T11:07:10.728Z,26.15
2018-03-17T11:08:10.742Z,25.68
2018-03-17T11:09:10.758Z,24.56
2018-03-17T11:10:10.777Z,23.34
2018-03-17T11:11:10.797Z,21.83
2018-03-17T11:12:10.813Z,20.32
2018-03-17T11:13:10.822Z,18.53
2018-03-17T11:14:10.848Z,17.78
2018-03-17T11:15:10.861Z,16.74
2018-03-17T11:16:10.886Z,15.88
2018-03-17T11:17:10.897Z,16.06
2018-03-17T11:18:10.920Z,15.89
2018-03-17T11:19:10.933Z,15.42
2018-03-17T11:20:10.956Z,14.76
2018-03-17T11:21:10.973Z,13.81
2018-03-17T11:22:10.993Z,13.24
2018-03-17T11:23:11.012Z,12.59
2018-03-17T11:24:11.038Z,12.12
2018-03-17T11:25:11.052Z,11.83
2018-03-17T11:26:11.072Z,11.15
2018-03-17T11:27:11.092Z,11.81
2018-03-17T11:28:11.114Z,11.91
2018-03-17T11:29:11.135Z,12.29
2018-03-17T11:30:11.157Z,12.29
2018-03-17T11:31:11.178Z,12.10
2018-03-17T11:32:11.211Z,12.10
2018-03-17T11:33:11.226Z,11.72
2018-03-17T11:34:11.247Z,11.61
2018-03-17T11:35:11.274Z,12.20
2018-03-17T11:36:11.293Z,12.29
2018-03-17T11:37:11.316Z,12.10
2018-03-17T11:38:11.337Z,12.47
2018-03-17T11:39:11.364Z,12.96
2018-03-17T11:40:11.382Z,12.85
2018-03-17T11:41:11.414Z,13.23
2018-03-17T11:42:11.438Z,13.62
2018-03-17T11:43:11.453Z,14.26
2018-03-17T11:44:11.480Z,15.12
2018-03-17T11:45:11.504Z,14.66
2018-03-17T11:46:11.524Z,14.58
2018-03-17T11:47:11.551Z,14.00
2018-03-17T11:48:11.571Z,13.51
2018-03-17T11:49:11.593Z,14.17
2018-03-17T11:50:11.628Z,14.74
2018-03-17T11:51:11.644Z,14.95
2018-03-17T11:52:11.664Z,14.00
2018-03-17T11:53:11.691Z,13.62
2018-03-17T11:54:11.713Z,13.24
2018-03-17T11:55:11.738Z,12.87
2018-03-17T11:56:11.763Z,11.99
2018-03-17T11:57:11.787Z,12.85
2018-03-17T11:58:11.820Z,12.86
2018-03-17T11:59:11.841Z,12.21
2018-03-17T12:00:11.855Z,11.25
2018-03-17T12:01:11.893Z,10.87
2018-03-17T12:02:11.940Z,11.05
2018-03-17T12:03:11.931Z,11.16
2018-03-17T12:04:11.956Z,11.34
2018-03-17T12:05:11.984Z,11.72
2018-03-17T12:06:12.015Z,11.54
2018-03-17T12:07:12.031Z,10.88
2018-03-17T12:08:12.062Z,10.21
2018-03-17T12:09:12.088Z,10.21
2018-03-17T12:10:12.119Z,10.30
2018-03-17T12:11:12.138Z,10.21
2018-03-17T12:12:12.160Z,9.63
2018-03-17T12:13:12.186Z,10.39
2018-03-17T12:14:12.217Z,10.96
2018-03-17T12:15:12.244Z,11.91
2018-03-17T12:16:12.274Z,11.91
2018-03-17T12:17:12.298Z,12.56
2018-03-17T12:18:12.320Z,13.51
2018-03-17T12:19:12.353Z,14.46
2018-03-17T12:20:12.372Z,14.76
2018-03-17T12:21:12.400Z,13.82
2018-03-17T12:22:12.428Z,13.07
2018-03-17T12:23:12.455Z,12.02
2018-03-17T12:24:12.483Z,11.08
2018-03-17T12:25:12.514Z,9.56
2018-03-17T12:26:12.530Z,8.80
2018-03-17T12:27:12.564Z,8.31
2018-03-17T12:28:12.587Z,8.31
2018-03-17T12:29:12.615Z,8.89
2018-03-17T12:30:12.646Z,8.04
2018-03-17T12:31:12.669Z,7.67
2018-03-17T12:32:12.693Z,7.56
2018-03-17T12:33:12.725Z,7.85
2018-03-17T12:34:12.753Z,7.28
2018-03-17T12:35:12.784Z,7.65
2018-03-17T12:36:12.809Z,8.70
2018-03-17T12:37:12.841Z,8.98
2018-03-17T12:38:12.868Z,8.80
2018-03-17T12:39:12.906Z,8.61
2018-03-17T12:40:12.928Z,8.90
2018-03-17T12:41:12.957Z,8.42
2018-03-17T12:42:12.997Z,8.51
2018-03-17T12:43:13.019Z,8.51
2018-03-17T12:44:13.048Z,8.22
2018-03-17T12:45:13.087Z,8.80
2018-03-17T12:46:13.108Z,9.36
2018-03-17T12:47:13.144Z,9.83
2018-03-17T12:48:13.172Z,10.21
2018-03-17T12:49:13.203Z,10.88
2018-03-17T12:50:13.234Z,11.25
2018-03-17T12:51:13.266Z,11.16
2018-03-17T12:52:13.296Z,11.55
2018-03-17T12:53:13.329Z,11.54